sensor_id;sensor_type;location;lat;lon;timestamp;P1;durP1;ratioP1;P2;durP2;ratioP2
69841;SDS011;57138;51.326;-0.068;2023-06-19T00:00:44;61.83;;;40.03;;
69841;SDS011;57138;51.326;-0.068;2023-06-19T00:03:09;63.08;;;39.75;;
69841;SDS011;57138;51.326;-0.068;2023-06-19T00:05:35;61.83;;;39.45;;
69841;SDS011;57138;51.326;-0.068;2023-06-19T00:08:00;57.85;;;36.70;;
69841;SDS011;57138;51.326;-0.068;2023-06-19T00:10:28;56.75;;;38.70;;
69841;SDS011;57138;51.326;-0.068;2023-06-19T00:12:53;58.63;;;35.58;;
69841;SDS011;57138;51.326;-0.068;2023-06-19T00:15:19;54.33;;;35.08;;
69841;SDS011;57138;51.326;-0.068;2023-06-19T00:17:45;48.33;;;33.35;;
69841;SDS011;57138;51.326;-0.068;2023-06-19T00:20:10;50.15;;;33.50;;
69841;SDS011;57138;51.326;-0.068;2023-06-19T00:22:35;54.35;;;33.60;;
69841;SDS011;57138;51.326;-0.068;2023-06-19T00:25:01;52.65;;;33.53;;
69841;SDS011;57138;51.326;-0.068;2023-06-19T00:27:26;50.38;;;31.70;;
69841;SDS011;57138;51.326;-0.068;2023-06-19T00:29:52;49.65;;;30.95;;
69841;SDS011;57138;51.326;-0.068;2023-06-19T00:32:17;47.03;;;30.27;;
69841;SDS011;57138;51.326;-0.068;2023-06-19T00:34:43;50.28;;;33.22;;
69841;SDS011;57138;51.326;-0.068;2023-06-19T00:37:09;49.35;;;31.73;;
69841;SDS011;57138;51.326;-0.068;2023-06-19T00:39:38;48.25;;;30.30;;
69841;SDS011;57138;51.326;-0.068;2023-06-19T00:42:04;48.47;;;32.88;;
69841;SDS011;57138;51.326;-0.068;2023-06-19T00:44:29;49.92;;;31.15;;
69841;SDS011;57138;51.326;-0.068;2023-06-19T00:46:58;52.47;;;31.23;;
69841;SDS011;57138;51.326;-0.068;2023-06-19T00:49:26;53.47;;;31.98;;
69841;SDS011;57138;51.326;-0.068;2023-06-19T00:51:53;47.50;;;30.42;;
69841;SDS011;57138;51.326;-0.068;2023-06-19T00:54:19;50.45;;;31.70;;
69841;SDS011;57138;51.326;-0.068;2023-06-19T00:56:45;50.45;;;29.58;;
69841;SDS011;57138;51.326;-0.068;2023-06-19T00:59:20;46.40;;;29.67;;
69841;SDS011;57138;51.326;-0.068;2023-06-19T01:01:45;44.10;;;30.13;;
69841;SDS011;57138;51.326;-0.068;2023-06-19T01:04:12;44.47;;;28.88;;
69841;SDS011;57138;51.326;-0.068;2023-06-19T01:09:25;43.85;;;28.05;;
69841;SDS011;57138;51.326;-0.068;2023-06-19T01:11:57;48.42;;;28.52;;
69841;SDS011;57138;51.326;-0.068;2023-06-19T01:14:28;44.17;;;28.02;;
69841;SDS011;57138;51.326;-0.068;2023-06-19T01:17:00;46.75;;;27.05;;
69841;SDS011;57138;51.326;-0.068;2023-06-19T01:19:27;43.30;;;26.95;;
69841;SDS011;57138;51.326;-0.068;2023-06-19T01:21:53;51.15;;;28.70;;
69841;SDS011;57138;51.326;-0.068;2023-06-19T01:24:19;47.95;;;27.50;;
69841;SDS011;57138;51.326;-0.068;2023-06-19T01:26:44;47.45;;;27.88;;
69841;SDS011;57138;51.326;-0.068;2023-06-19T01:29:13;49.08;;;27.80;;
69841;SDS011;57138;51.326;-0.068;2023-06-19T01:31:50;45.03;;;26.10;;
69841;SDS011;57138;51.326;-0.068;2023-06-19T01:34:25;43.47;;;26.10;;
69841;SDS011;57138;51.326;-0.068;2023-06-19T01:36:53;48.97;;;26.67;;
69841;SDS011;57138;51.326;-0.068;2023-06-19T01:39:22;45.40;;;26.92;;
69841;SDS011;57138;51.326;-0.068;2023-06-19T01:41:48;48.47;;;26.38;;
69841;SDS011;57138;51.326;-0.068;2023-06-19T01:44:15;48.28;;;26.70;;
69841;SDS011;57138;51.326;-0.068;2023-06-19T01:46:41;45.75;;;25.38;;
69841;SDS011;57138;51.326;-0.068;2023-06-19T01:49:09;41.78;;;24.35;;
69841;SDS011;57138;51.326;-0.068;2023-06-19T01:51:35;42.85;;;25.63;;
69841;SDS011;57138;51.326;-0.068;2023-06-19T01:54:01;44.80;;;25.65;;
69841;SDS011;57138;51.326;-0.068;2023-06-19T01:56:27;48.75;;;26.17;;
69841;SDS011;57138;51.326;-0.068;2023-06-19T01:58:53;40.47;;;22.58;;
69841;SDS011;57138;51.326;-0.068;2023-06-19T02:01:20;48.70;;;25.88;;
69841;SDS011;57138;51.326;-0.068;2023-06-19T02:03:46;38.40;;;22.88;;
69841;SDS011;57138;51.326;-0.068;2023-06-19T02:06:11;45.10;;;23.27;;
69841;SDS011;57138;51.326;-0.068;2023-06-19T02:08:37;41.70;;;21.98;;
69841;SDS011;57138;51.326;-0.068;2023-06-19T02:11:02;39.45;;;21.83;;
69841;SDS011;57138;51.326;-0.068;2023-06-19T02:13:31;38.33;;;21.35;;
69841;SDS011;57138;51.326;-0.068;2023-06-19T02:15:56;40.03;;;21.92;;
69841;SDS011;57138;51.326;-0.068;2023-06-19T02:18:21;43.05;;;21.05;;
69841;SDS011;57138;51.326;-0.068;2023-06-19T02:20:47;35.10;;;20.48;;
69841;SDS011;57138;51.326;-0.068;2023-06-19T02:23:12;38.33;;;20.60;;
69841;SDS011;57138;51.326;-0.068;2023-06-19T02:25:37;39.03;;;21.77;;
69841;SDS011;57138;51.326;-0.068;2023-06-19T02:28:03;35.53;;;21.88;;
69841;SDS011;57138;51.326;-0.068;2023-06-19T02:30:28;44.40;;;23.80;;
69841;SDS011;57138;51.326;-0.068;2023-06-19T02:32:54;38.03;;;22.75;;
69841;SDS011;57138;51.326;-0.068;2023-06-19T02:35:21;47.15;;;24.08;;
69841;SDS011;57138;51.326;-0.068;2023-06-19T02:37:46;43.53;;;22.55;;
69841;SDS011;57138;51.326;-0.068;2023-06-19T02:40:12;46.55;;;25.92;;
69841;SDS011;57138;51.326;-0.068;2023-06-19T02:42:39;44.33;;;24.63;;
69841;SDS011;57138;51.326;-0.068;2023-06-19T02:45:04;45.28;;;23.48;;
69841;SDS011;57138;51.326;-0.068;2023-06-19T02:47:30;43.60;;;25.90;;
69841;SDS011;57138;51.326;-0.068;2023-06-19T02:49:59;46.33;;;25.10;;
69841;SDS011;57138;51.326;-0.068;2023-06-19T02:52:26;44.83;;;24.80;;
69841;SDS011;57138;51.326;-0.068;2023-06-19T02:54:52;50.05;;;25.15;;
69841;SDS011;57138;51.326;-0.068;2023-06-19T02:57:18;46.97;;;25.85;;
69841;SDS011;57138;51.326;-0.068;2023-06-19T02:59:46;53.03;;;25.52;;
69841;SDS011;57138;51.326;-0.068;2023-06-19T03:02:13;50.10;;;25.33;;
69841;SDS011;57138;51.326;-0.068;2023-06-19T03:04:42;60.63;;;27.65;;
69841;SDS011;57138;51.326;-0.068;2023-06-19T03:07:09;54.90;;;28.35;;
69841;SDS011;57138;51.326;-0.068;2023-06-19T03:09:34;57.95;;;27.38;;
69841;SDS011;57138;51.326;-0.068;2023-06-19T03:12:00;56.35;;;26.80;;
69841;SDS011;57138;51.326;-0.068;2023-06-19T03:14:25;65.20;;;29.85;;
69841;SDS011;57138;51.326;-0.068;2023-06-19T03:16:50;56.40;;;30.00;;
69841;SDS011;57138;51.326;-0.068;2023-06-19T03:19:16;58.60;;;29.10;;
69841;SDS011;57138;51.326;-0.068;2023-06-19T03:21:41;60.22;;;28.92;;
69841;SDS011;57138;51.326;-0.068;2023-06-19T03:24:07;61.15;;;28.52;;
69841;SDS011;57138;51.326;-0.068;2023-06-19T03:26:32;64.38;;;29.90;;
69841;SDS011;57138;51.326;-0.068;2023-06-19T03:28:59;60.08;;;30.15;;
69841;SDS011;57138;51.326;-0.068;2023-06-19T03:31:25;62.22;;;30.48;;
69841;SDS011;57138;51.326;-0.068;2023-06-19T03:33:50;59.03;;;28.10;;
69841;SDS011;57138;51.326;-0.068;2023-06-19T03:36:16;54.53;;;27.00;;
69841;SDS011;57138;51.326;-0.068;2023-06-19T03:38:41;52.35;;;26.10;;
69841;SDS011;57138;51.326;-0.068;2023-06-19T03:41:06;58.22;;;26.67;;
69841;SDS011;57138;51.326;-0.068;2023-06-19T03:43:32;55.80;;;26.45;;
69841;SDS011;57138;51.326;-0.068;2023-06-19T03:45:57;57.00;;;28.25;;
69841;SDS011;57138;51.326;-0.068;2023-06-19T03:48:23;57.28;;;26.08;;
69841;SDS011;57138;51.326;-0.068;2023-06-19T03:50:48;66.63;;;29.02;;
69841;SDS011;57138;51.326;-0.068;2023-06-19T03:53:13;51.15;;;27.20;;
69841;SDS011;57138;51.326;-0.068;2023-06-19T03:55:39;49.97;;;26.95;;
69841;SDS011;57138;51.326;-0.068;2023-06-19T03:58:04;62.50;;;27.25;;
69841;SDS011;57138;51.326;-0.068;2023-06-19T04:00:31;52.80;;;28.08;;
69841;SDS011;57138;51.326;-0.068;2023-06-19T04:02:57;47.60;;;25.60;;
69841;SDS011;57138;51.326;-0.068;2023-06-19T04:05:23;48.65;;;24.83;;
69841;SDS011;57138;51.326;-0.068;2023-06-19T04:07:48;46.17;;;23.92;;
69841;SDS011;57138;51.326;-0.068;2023-06-19T04:10:14;51.30;;;26.88;;
69841;SDS011;57138;51.326;-0.068;2023-06-19T04:12:39;51.53;;;25.45;;
69841;SDS011;57138;51.326;-0.068;2023-06-19T04:15:05;44.05;;;25.48;;
69841;SDS011;57138;51.326;-0.068;2023-06-19T04:17:34;45.45;;;26.52;;
69841;SDS011;57138;51.326;-0.068;2023-06-19T04:20:00;44.20;;;24.42;;
69841;SDS011;57138;51.326;-0.068;2023-06-19T04:22:26;54.13;;;27.20;;
69841;SDS011;57138;51.326;-0.068;2023-06-19T04:24:51;53.38;;;27.70;;
69841;SDS011;57138;51.326;-0.068;2023-06-19T04:27:16;48.63;;;25.10;;
69841;SDS011;57138;51.326;-0.068;2023-06-19T04:29:42;55.95;;;27.05;;
69841;SDS011;57138;51.326;-0.068;2023-06-19T04:32:08;50.10;;;25.67;;
69841;SDS011;57138;51.326;-0.068;2023-06-19T04:34:38;59.25;;;27.23;;
69841;SDS011;57138;51.326;-0.068;2023-06-19T04:37:04;56.05;;;25.48;;
69841;SDS011;57138;51.326;-0.068;2023-06-19T04:39:30;51.88;;;25.92;;
69841;SDS011;57138;51.326;-0.068;2023-06-19T04:41:55;54.28;;;24.75;;
69841;SDS011;57138;51.326;-0.068;2023-06-19T04:44:20;48.10;;;24.92;;
69841;SDS011;57138;51.326;-0.068;2023-06-19T04:46:47;45.30;;;24.83;;
69841;SDS011;57138;51.326;-0.068;2023-06-19T04:49:12;48.40;;;25.92;;
69841;SDS011;57138;51.326;-0.068;2023-06-19T04:51:38;44.78;;;23.38;;
69841;SDS011;57138;51.326;-0.068;2023-06-19T04:54:03;50.28;;;25.48;;
69841;SDS011;57138;51.326;-0.068;2023-06-19T04:56:29;50.85;;;26.35;;
69841;SDS011;57138;51.326;-0.068;2023-06-19T04:58:57;49.45;;;25.40;;
69841;SDS011;57138;51.326;-0.068;2023-06-19T05:01:24;49.10;;;25.23;;
69841;SDS011;57138;51.326;-0.068;2023-06-19T05:03:55;60.42;;;27.13;;
69841;SDS011;57138;51.326;-0.068;2023-06-19T05:06:24;45.15;;;25.40;;
69841;SDS011;57138;51.326;-0.068;2023-06-19T05:08:50;42.22;;;23.52;;
69841;SDS011;57138;51.326;-0.068;2023-06-19T05:11:15;47.33;;;25.80;;
69841;SDS011;57138;51.326;-0.068;2023-06-19T05:13:41;47.65;;;25.40;;
69841;SDS011;57138;51.326;-0.068;2023-06-19T05:16:07;42.05;;;24.92;;
69841;SDS011;57138;51.326;-0.068;2023-06-19T05:18:32;38.83;;;24.77;;
69841;SDS011;57138;51.326;-0.068;2023-06-19T05:20:57;42.78;;;25.45;;
69841;SDS011;57138;51.326;-0.068;2023-06-19T05:23:23;40.17;;;23.98;;
69841;SDS011;57138;51.326;-0.068;2023-06-19T05:25:48;35.38;;;23.77;;
69841;SDS011;57138;51.326;-0.068;2023-06-19T05:28:14;37.95;;;21.90;;
69841;SDS011;57138;51.326;-0.068;2023-06-19T05:30:39;36.72;;;23.13;;
69841;SDS011;57138;51.326;-0.068;2023-06-19T05:33:04;34.63;;;21.63;;
69841;SDS011;57138;51.326;-0.068;2023-06-19T05:35:30;42.92;;;22.73;;
69841;SDS011;57138;51.326;-0.068;2023-06-19T05:37:56;42.88;;;23.92;;
69841;SDS011;57138;51.326;-0.068;2023-06-19T05:40:22;45.70;;;24.95;;
69841;SDS011;57138;51.326;-0.068;2023-06-19T05:42:47;41.92;;;24.65;;
69841;SDS011;57138;51.326;-0.068;2023-06-19T05:45:13;35.85;;;22.83;;
69841;SDS011;57138;51.326;-0.068;2023-06-19T05:47:38;41.45;;;22.08;;
69841;SDS011;57138;51.326;-0.068;2023-06-19T05:50:06;35.20;;;22.45;;
69841;SDS011;57138;51.326;-0.068;2023-06-19T05:52:32;34.65;;;22.10;;
69841;SDS011;57138;51.326;-0.068;2023-06-19T05:54:58;34.88;;;21.30;;
69841;SDS011;57138;51.326;-0.068;2023-06-19T05:57:23;35.15;;;22.00;;
69841;SDS011;57138;51.326;-0.068;2023-06-19T05:59:49;36.35;;;22.17;;
69841;SDS011;57138;51.326;-0.068;2023-06-19T06:02:16;31.25;;;20.48;;
69841;SDS011;57138;51.326;-0.068;2023-06-19T06:04:42;29.33;;;18.50;;
69841;SDS011;57138;51.326;-0.068;2023-06-19T06:07:08;30.48;;;19.52;;
69841;SDS011;57138;51.326;-0.068;2023-06-19T06:09:33;31.08;;;20.20;;
69841;SDS011;57138;51.326;-0.068;2023-06-19T06:11:59;31.10;;;20.20;;
69841;SDS011;57138;51.326;-0.068;2023-06-19T06:14:25;28.95;;;19.88;;
69841;SDS011;57138;51.326;-0.068;2023-06-19T06:16:51;32.17;;;19.73;;
69841;SDS011;57138;51.326;-0.068;2023-06-19T06:19:17;32.53;;;19.42;;
69841;SDS011;57138;51.326;-0.068;2023-06-19T06:21:43;29.30;;;18.63;;
69841;SDS011;57138;51.326;-0.068;2023-06-19T06:24:09;25.90;;;17.60;;
69841;SDS011;57138;51.326;-0.068;2023-06-19T06:26:34;26.48;;;18.80;;
69841;SDS011;57138;51.326;-0.068;2023-06-19T06:29:01;30.80;;;17.85;;
69841;SDS011;57138;51.326;-0.068;2023-06-19T06:31:26;26.45;;;16.70;;
69841;SDS011;57138;51.326;-0.068;2023-06-19T06:33:52;30.08;;;17.30;;
69841;SDS011;57138;51.326;-0.068;2023-06-19T06:36:18;24.70;;;15.32;;
69841;SDS011;57138;51.326;-0.068;2023-06-19T06:38:44;25.55;;;15.85;;
69841;SDS011;57138;51.326;-0.068;2023-06-19T06:41:09;23.23;;;14.63;;
69841;SDS011;57138;51.326;-0.068;2023-06-19T06:43:36;21.33;;;14.55;;
69841;SDS011;57138;51.326;-0.068;2023-06-19T06:46:03;23.85;;;14.48;;
69841;SDS011;57138;51.326;-0.068;2023-06-19T06:48:29;23.10;;;14.05;;
69841;SDS011;57138;51.326;-0.068;2023-06-19T06:50:55;24.58;;;13.70;;
69841;SDS011;57138;51.326;-0.068;2023-06-19T06:53:26;23.95;;;13.02;;
69841;SDS011;57138;51.326;-0.068;2023-06-19T06:55:53;20.98;;;15.30;;
69841;SDS011;57138;51.326;-0.068;2023-06-19T06:58:18;19.58;;;14.20;;
69841;SDS011;57138;51.326;-0.068;2023-06-19T07:00:44;19.85;;;13.88;;
69841;SDS011;57138;51.326;-0.068;2023-06-19T07:03:10;27.42;;;14.30;;
69841;SDS011;57138;51.326;-0.068;2023-06-19T07:05:35;21.30;;;13.55;;
69841;SDS011;57138;51.326;-0.068;2023-06-19T07:08:01;20.63;;;13.38;;
69841;SDS011;57138;51.326;-0.068;2023-06-19T07:10:27;17.50;;;12.13;;
69841;SDS011;57138;51.326;-0.068;2023-06-19T07:12:52;22.83;;;13.48;;
69841;SDS011;57138;51.326;-0.068;2023-06-19T07:15:18;19.23;;;12.65;;
69841;SDS011;57138;51.326;-0.068;2023-06-19T07:17:46;19.65;;;11.85;;
69841;SDS011;57138;51.326;-0.068;2023-06-19T07:20:13;20.38;;;11.25;;
69841;SDS011;57138;51.326;-0.068;2023-06-19T07:22:42;22.75;;;12.68;;
69841;SDS011;57138;51.326;-0.068;2023-06-19T07:25:09;23.98;;;11.10;;
69841;SDS011;57138;51.326;-0.068;2023-06-19T07:27:36;20.33;;;11.02;;
69841;SDS011;57138;51.326;-0.068;2023-06-19T07:30:02;19.05;;;10.98;;
69841;SDS011;57138;51.326;-0.068;2023-06-19T07:32:27;20.13;;;10.27;;
69841;SDS011;57138;51.326;-0.068;2023-06-19T07:34:53;18.65;;;9.55;;
69841;SDS011;57138;51.326;-0.068;2023-06-19T07:37:19;16.73;;;9.80;;
69841;SDS011;57138;51.326;-0.068;2023-06-19T07:39:45;17.77;;;9.48;;
69841;SDS011;57138;51.326;-0.068;2023-06-19T07:42:14;16.38;;;9.23;;
69841;SDS011;57138;51.326;-0.068;2023-06-19T07:44:40;13.75;;;8.88;;
69841;SDS011;57138;51.326;-0.068;2023-06-19T07:47:06;16.40;;;7.80;;
69841;SDS011;57138;51.326;-0.068;2023-06-19T07:49:36;12.52;;;8.00;;
69841;SDS011;57138;51.326;-0.068;2023-06-19T07:52:02;12.68;;;7.15;;
69841;SDS011;57138;51.326;-0.068;2023-06-19T07:54:28;17.80;;;6.90;;
69841;SDS011;57138;51.326;-0.068;2023-06-19T07:56:54;11.68;;;7.03;;
69841;SDS011;57138;51.326;-0.068;2023-06-19T07:59:20;13.25;;;6.65;;
69841;SDS011;57138;51.326;-0.068;2023-06-19T08:01:45;14.75;;;7.00;;
69841;SDS011;57138;51.326;-0.068;2023-06-19T08:04:11;12.88;;;7.55;;
69841;SDS011;57138;51.326;-0.068;2023-06-19T08:06:36;11.25;;;6.82;;
69841;SDS011;57138;51.326;-0.068;2023-06-19T08:09:02;19.95;;;7.43;;
69841;SDS011;57138;51.326;-0.068;2023-06-19T08:11:28;19.35;;;7.03;;
69841;SDS011;57138;51.326;-0.068;2023-06-19T08:13:53;13.38;;;6.97;;
69841;SDS011;57138;51.326;-0.068;2023-06-19T08:16:18;13.35;;;6.88;;
69841;SDS011;57138;51.326;-0.068;2023-06-19T08:18:44;21.48;;;9.05;;
69841;SDS011;57138;51.326;-0.068;2023-06-19T08:21:11;13.73;;;6.15;;
69841;SDS011;57138;51.326;-0.068;2023-06-19T08:23:37;16.30;;;7.60;;
69841;SDS011;57138;51.326;-0.068;2023-06-19T08:26:08;16.77;;;7.40;;
69841;SDS011;57138;51.326;-0.068;2023-06-19T08:28:34;11.35;;;5.93;;
69841;SDS011;57138;51.326;-0.068;2023-06-19T08:30:59;10.38;;;5.20;;
69841;SDS011;57138;51.326;-0.068;2023-06-19T08:33:25;13.02;;;5.97;;
69841;SDS011;57138;51.326;-0.068;2023-06-19T08:35:51;13.20;;;6.07;;
69841;SDS011;57138;51.326;-0.068;2023-06-19T08:38:17;13.68;;;5.88;;
69841;SDS011;57138;51.326;-0.068;2023-06-19T08:40:43;11.27;;;5.70;;
69841;SDS011;57138;51.326;-0.068;2023-06-19T08:43:09;11.52;;;5.13;;
69841;SDS011;57138;51.326;-0.068;2023-06-19T08:45:35;15.73;;;5.97;;
69841;SDS011;57138;51.326;-0.068;2023-06-19T08:48:01;9.75;;;5.30;;
69841;SDS011;57138;51.326;-0.068;2023-06-19T08:50:29;12.88;;;5.35;;
69841;SDS011;57138;51.326;-0.068;2023-06-19T08:52:55;11.90;;;5.30;;
69841;SDS011;57138;51.326;-0.068;2023-06-19T08:55:21;11.70;;;4.85;;
69841;SDS011;57138;51.326;-0.068;2023-06-19T08:57:48;10.07;;;5.28;;
69841;SDS011;57138;51.326;-0.068;2023-06-19T09:00:22;13.00;;;5.55;;
69841;SDS011;57138;51.326;-0.068;2023-06-19T09:02:50;14.10;;;5.00;;
69841;SDS011;57138;51.326;-0.068;2023-06-19T09:05:17;11.10;;;5.95;;
69841;SDS011;57138;51.326;-0.068;2023-06-19T09:07:45;17.45;;;6.22;;
69841;SDS011;57138;51.326;-0.068;2023-06-19T09:10:20;10.55;;;5.68;;
69841;SDS011;57138;51.326;-0.068;2023-06-19T09:12:58;9.20;;;5.35;;
69841;SDS011;57138;51.326;-0.068;2023-06-19T09:15:29;12.88;;;5.80;;
69841;SDS011;57138;51.326;-0.068;2023-06-19T09:18:09;11.45;;;5.65;;
69841;SDS011;57138;51.326;-0.068;2023-06-19T09:20:40;14.50;;;5.20;;
69841;SDS011;57138;51.326;-0.068;2023-06-19T09:23:12;15.02;;;6.18;;
69841;SDS011;57138;51.326;-0.068;2023-06-19T09:25:46;10.68;;;5.35;;
69841;SDS011;57138;51.326;-0.068;2023-06-19T09:28:17;10.35;;;5.05;;
69841;SDS011;57138;51.326;-0.068;2023-06-19T09:31:00;14.65;;;6.15;;
69841;SDS011;57138;51.326;-0.068;2023-06-19T09:33:31;12.00;;;6.10;;
69841;SDS011;57138;51.326;-0.068;2023-06-19T09:35:58;11.80;;;5.35;;
69841;SDS011;57138;51.326;-0.068;2023-06-19T09:38:28;13.93;;;6.93;;
69841;SDS011;57138;51.326;-0.068;2023-06-19T09:40:55;11.43;;;5.32;;
69841;SDS011;57138;51.326;-0.068;2023-06-19T09:43:44;12.57;;;4.90;;
69841;SDS011;57138;51.326;-0.068;2023-06-19T09:46:09;11.55;;;4.68;;
69841;SDS011;57138;51.326;-0.068;2023-06-19T09:48:35;11.48;;;5.00;;
69841;SDS011;57138;51.326;-0.068;2023-06-19T09:53:36;7.45;;;4.10;;
69841;SDS011;57138;51.326;-0.068;2023-06-19T09:56:01;10.23;;;5.03;;
69841;SDS011;57138;51.326;-0.068;2023-06-19T09:58:27;12.90;;;5.10;;
69841;SDS011;57138;51.326;-0.068;2023-06-19T10:00:54;10.70;;;6.13;;
69841;SDS011;57138;51.326;-0.068;2023-06-19T10:03:21;8.00;;;4.57;;
69841;SDS011;57138;51.326;-0.068;2023-06-19T10:06:00;11.57;;;5.13;;
69841;SDS011;57138;51.326;-0.068;2023-06-19T10:08:30;9.80;;;5.35;;
69841;SDS011;57138;51.326;-0.068;2023-06-19T10:11:03;12.75;;;4.88;;
69841;SDS011;57138;51.326;-0.068;2023-06-19T10:13:33;9.80;;;4.53;;
69841;SDS011;57138;51.326;-0.068;2023-06-19T10:16:01;12.52;;;5.03;;
69841;SDS011;57138;51.326;-0.068;2023-06-19T10:18:27;14.90;;;4.68;;
69841;SDS011;57138;51.326;-0.068;2023-06-19T10:20:53;6.38;;;4.18;;
69841;SDS011;57138;51.326;-0.068;2023-06-19T10:23:21;10.27;;;4.28;;
69841;SDS011;57138;51.326;-0.068;2023-06-19T10:25:58;11.95;;;3.90;;
69841;SDS011;57138;51.326;-0.068;2023-06-19T10:28:28;9.00;;;4.13;;
69841;SDS011;57138;51.326;-0.068;2023-06-19T10:30:56;12.32;;;4.90;;
69841;SDS011;57138;51.326;-0.068;2023-06-19T10:33:31;9.10;;;4.47;;
69841;SDS011;57138;51.326;-0.068;2023-06-19T10:35:58;10.55;;;5.07;;
69841;SDS011;57138;51.326;-0.068;2023-06-19T10:38:28;9.63;;;4.85;;
69841;SDS011;57138;51.326;-0.068;2023-06-19T10:40:54;10.10;;;3.95;;
69841;SDS011;57138;51.326;-0.068;2023-06-19T10:43:24;8.88;;;4.13;;
69841;SDS011;57138;51.326;-0.068;2023-06-19T10:45:53;10.80;;;4.15;;
69841;SDS011;57138;51.326;-0.068;2023-06-19T10:48:19;8.63;;;3.85;;
69841;SDS011;57138;51.326;-0.068;2023-06-19T10:50:46;8.50;;;4.43;;
69841;SDS011;57138;51.326;-0.068;2023-06-19T10:53:22;11.45;;;4.85;;
69841;SDS011;57138;51.326;-0.068;2023-06-19T10:55:55;11.20;;;4.40;;
69841;SDS011;57138;51.326;-0.068;2023-06-19T10:58:24;7.00;;;3.85;;
69841;SDS011;57138;51.326;-0.068;2023-06-19T11:00:50;7.13;;;4.55;;
69841;SDS011;57138;51.326;-0.068;2023-06-19T11:03:16;9.52;;;4.65;;
69841;SDS011;57138;51.326;-0.068;2023-06-19T11:05:43;8.45;;;4.50;;
69841;SDS011;57138;51.326;-0.068;2023-06-19T11:08:09;10.70;;;4.82;;
69841;SDS011;57138;51.326;-0.068;2023-06-19T11:10:35;10.68;;;4.22;;
69841;SDS011;57138;51.326;-0.068;2023-06-19T11:13:01;8.60;;;4.43;;
69841;SDS011;57138;51.326;-0.068;2023-06-19T11:15:35;7.72;;;4.32;;
69841;SDS011;57138;51.326;-0.068;2023-06-19T11:18:01;13.30;;;4.22;;
69841;SDS011;57138;51.326;-0.068;2023-06-19T11:20:28;12.15;;;3.88;;
69841;SDS011;57138;51.326;-0.068;2023-06-19T11:22:57;7.63;;;4.45;;
69841;SDS011;57138;51.326;-0.068;2023-06-19T11:25:33;10.75;;;4.78;;
69841;SDS011;57138;51.326;-0.068;2023-06-19T11:28:03;7.53;;;3.50;;
69841;SDS011;57138;51.326;-0.068;2023-06-19T11:30:30;11.75;;;4.20;;
69841;SDS011;57138;51.326;-0.068;2023-06-19T11:32:57;9.07;;;4.07;;
69841;SDS011;57138;51.326;-0.068;2023-06-19T11:35:22;8.27;;;4.35;;
69841;SDS011;57138;51.326;-0.068;2023-06-19T11:37:48;9.95;;;4.18;;
69841;SDS011;57138;51.326;-0.068;2023-06-19T11:40:14;10.73;;;4.75;;
69841;SDS011;57138;51.326;-0.068;2023-06-19T11:42:53;9.43;;;4.78;;
69841;SDS011;57138;51.326;-0.068;2023-06-19T11:45:19;8.02;;;3.92;;
69841;SDS011;57138;51.326;-0.068;2023-06-19T11:47:45;7.63;;;4.13;;
69841;SDS011;57138;51.326;-0.068;2023-06-19T11:50:13;8.20;;;3.97;;
69841;SDS011;57138;51.326;-0.068;2023-06-19T11:52:41;11.05;;;4.38;;
69841;SDS011;57138;51.326;-0.068;2023-06-19T11:55:08;6.72;;;4.00;;
69841;SDS011;57138;51.326;-0.068;2023-06-19T11:57:34;7.80;;;3.58;;
69841;SDS011;57138;51.326;-0.068;2023-06-19T11:59:59;8.95;;;2.92;;
69841;SDS011;57138;51.326;-0.068;2023-06-19T12:02:25;10.57;;;3.67;;
69841;SDS011;57138;51.326;-0.068;2023-06-19T12:04:50;8.43;;;4.47;;
69841;SDS011;57138;51.326;-0.068;2023-06-19T12:07:15;7.82;;;3.45;;
69841;SDS011;57138;51.326;-0.068;2023-06-19T12:09:42;9.30;;;3.55;;
69841;SDS011;57138;51.326;-0.068;2023-06-19T12:12:08;8.95;;;3.85;;
69841;SDS011;57138;51.326;-0.068;2023-06-19T12:14:36;8.00;;;3.55;;
69841;SDS011;57138;51.326;-0.068;2023-06-19T12:17:01;7.72;;;3.40;;
69841;SDS011;57138;51.326;-0.068;2023-06-19T12:19:26;7.43;;;3.10;;
69841;SDS011;57138;51.326;-0.068;2023-06-19T12:21:55;7.18;;;2.78;;
69841;SDS011;57138;51.326;-0.068;2023-06-19T12:24:20;10.85;;;3.20;;
69841;SDS011;57138;51.326;-0.068;2023-06-19T12:26:45;6.38;;;3.17;;
69841;SDS011;57138;51.326;-0.068;2023-06-19T12:29:11;4.15;;;2.10;;
69841;SDS011;57138;51.326;-0.068;2023-06-19T12:31:36;9.65;;;2.72;;
69841;SDS011;57138;51.326;-0.068;2023-06-19T12:34:02;5.60;;;2.60;;
69841;SDS011;57138;51.326;-0.068;2023-06-19T12:36:29;7.22;;;2.30;;
69841;SDS011;57138;51.326;-0.068;2023-06-19T12:38:57;8.05;;;2.80;;
69841;SDS011;57138;51.326;-0.068;2023-06-19T12:41:23;9.45;;;2.90;;
69841;SDS011;57138;51.326;-0.068;2023-06-19T12:43:49;8.48;;;2.55;;
69841;SDS011;57138;51.326;-0.068;2023-06-19T12:46:15;8.82;;;2.95;;
69841;SDS011;57138;51.326;-0.068;2023-06-19T12:48:41;6.20;;;2.50;;
69841;SDS011;57138;51.326;-0.068;2023-06-19T12:51:06;7.85;;;3.05;;
69841;SDS011;57138;51.326;-0.068;2023-06-19T12:53:32;6.18;;;2.35;;
69841;SDS011;57138;51.326;-0.068;2023-06-19T12:55:58;10.10;;;2.53;;
69841;SDS011;57138;51.326;-0.068;2023-06-19T12:58:25;7.00;;;2.35;;
69841;SDS011;57138;51.326;-0.068;2023-06-19T13:00:51;7.45;;;3.17;;
69841;SDS011;57138;51.326;-0.068;2023-06-19T13:03:18;7.10;;;2.58;;
69841;SDS011;57138;51.326;-0.068;2023-06-19T13:05:44;7.53;;;2.38;;
69841;SDS011;57138;51.326;-0.068;2023-06-19T13:08:12;7.22;;;2.65;;
69841;SDS011;57138;51.326;-0.068;2023-06-19T13:10:37;9.98;;;2.53;;
69841;SDS011;57138;51.326;-0.068;2023-06-19T13:13:03;8.77;;;3.10;;
69841;SDS011;57138;51.326;-0.068;2023-06-19T13:15:30;7.65;;;2.65;;
69841;SDS011;57138;51.326;-0.068;2023-06-19T13:17:58;8.77;;;2.75;;
69841;SDS011;57138;51.326;-0.068;2023-06-19T13:20:24;7.22;;;2.70;;
69841;SDS011;57138;51.326;-0.068;2023-06-19T13:22:50;6.88;;;2.75;;
69841;SDS011;57138;51.326;-0.068;2023-06-19T13:25:15;6.78;;;2.47;;
69841;SDS011;57138;51.326;-0.068;2023-06-19T13:27:40;7.55;;;2.30;;
69841;SDS011;57138;51.326;-0.068;2023-06-19T13:30:06;6.93;;;2.40;;
69841;SDS011;57138;51.326;-0.068;2023-06-19T13:32:32;6.00;;;2.53;;
69841;SDS011;57138;51.326;-0.068;2023-06-19T13:34:58;10.02;;;2.63;;
69841;SDS011;57138;51.326;-0.068;2023-06-19T13:37:23;7.57;;;2.55;;
69841;SDS011;57138;51.326;-0.068;2023-06-19T13:39:49;7.43;;;2.58;;
69841;SDS011;57138;51.326;-0.068;2023-06-19T13:42:14;8.30;;;2.60;;
69841;SDS011;57138;51.326;-0.068;2023-06-19T13:44:40;9.93;;;2.65;;
69841;SDS011;57138;51.326;-0.068;2023-06-19T13:47:05;6.82;;;2.25;;
69841;SDS011;57138;51.326;-0.068;2023-06-19T13:49:32;7.82;;;2.63;;
69841;SDS011;57138;51.326;-0.068;2023-06-19T13:51:57;9.75;;;2.38;;
69841;SDS011;57138;51.326;-0.068;2023-06-19T13:54:23;8.05;;;2.70;;
69841;SDS011;57138;51.326;-0.068;2023-06-19T13:56:48;11.68;;;2.70;;
69841;SDS011;57138;51.326;-0.068;2023-06-19T13:59:16;6.93;;;2.58;;
69841;SDS011;57138;51.326;-0.068;2023-06-19T14:01:41;10.13;;;2.90;;
69841;SDS011;57138;51.326;-0.068;2023-06-19T14:04:07;7.57;;;2.60;;
69841;SDS011;57138;51.326;-0.068;2023-06-19T14:06:33;5.40;;;2.20;;
69841;SDS011;57138;51.326;-0.068;2023-06-19T14:08:59;5.57;;;2.38;;
69841;SDS011;57138;51.326;-0.068;2023-06-19T14:11:25;6.57;;;2.65;;
69841;SDS011;57138;51.326;-0.068;2023-06-19T14:13:51;7.32;;;2.30;;
69841;SDS011;57138;51.326;-0.068;2023-06-19T14:16:16;5.45;;;2.13;;
69841;SDS011;57138;51.326;-0.068;2023-06-19T14:18:42;7.18;;;2.58;;
69841;SDS011;57138;51.326;-0.068;2023-06-19T14:21:07;7.45;;;3.03;;